createdAt,value
2017-11-26T15:29:27.368Z,20.73
2017-11-26T15:29:38.867Z,35.08
2017-11-26T15:29:50.388Z,28.85
2017-11-26T15:30:02.648Z,23.25
2017-11-26T15:30:14.156Z,18.65
2017-11-26T15:30:25.653Z,15.90
2017-11-26T15:30:37.981Z,8.48
2017-11-26T15:30:49.488Z,5.40
2017-11-26T15:31:00.991Z,6.43
2017-11-26T15:31:12.501Z,7.40
2017-11-26T15:31:24.008Z,8.88
2017-11-26T15:31:36.271Z,9.95
2017-11-26T15:31:47.760Z,10.93
2017-11-26T15:32:00.022Z,10.00
2017-11-26T15:32:11.523Z,9.18
2017-11-26T15:32:23.039Z,8.48
2017-11-26T15:32:34.577Z,7.93
2017-11-26T15:32:46.836Z,6.93
2017-11-26T15:32:58.315Z,7.30
2017-11-26T15:33:10.545Z,7.55
2017-11-26T15:33:22.785Z,6.87
2017-11-26T15:33:34.271Z,6.40
2017-11-26T15:33:46.523Z,6.82
2017-11-26T15:34:18.273Z,12.40
2017-11-26T15:34:29.809Z,11.32
2017-11-26T15:34:41.347Z,9.68
2017-11-26T15:34:53.940Z,9.43
2017-11-26T15:35:06.964Z,8.90
2017-11-26T15:35:19.233Z,8.70
2017-11-26T15:35:30.724Z,7.97
2017-11-26T15:35:42.244Z,7.80
2017-11-26T15:35:53.771Z,7.50
2017-11-26T15:36:06.032Z,7.40
2017-11-26T15:36:17.550Z,6.70
2017-11-26T15:36:29.080Z,6.50
2017-11-26T15:36:40.603Z,6.53
2017-11-26T15:36:52.353Z,6.50
2017-11-26T15:37:04.021Z,6.70
2017-11-26T15:37:16.272Z,6.72
2017-11-26T15:37:27.761Z,6.90
2017-11-26T15:37:39.281Z,7.22
2017-11-26T15:37:51.540Z,7.22
2017-11-26T15:38:03.802Z,6.70
2017-11-26T15:38:15.301Z,6.75
2017-11-26T15:38:27.665Z,6.93
2017-11-26T15:38:39.401Z,7.10
2017-11-26T15:38:51.012Z,6.90
2017-11-26T15:39:02.512Z,7.20
2017-11-26T15:39:14.822Z,7.25
2017-11-26T15:39:27.046Z,7.18
2017-11-26T15:39:38.659Z,6.82
2017-11-26T15:39:50.279Z,7.50
2017-11-26T15:40:01.779Z,7.75
2017-11-26T15:40:13.471Z,8.30
2017-11-26T15:40:24.996Z,8.65
2017-11-26T15:40:36.491Z,8.93
2017-11-26T15:40:47.984Z,8.57
2017-11-26T15:41:00.306Z,8.45
2017-11-26T15:41:15.359Z,9.00
2017-11-26T15:41:27.027Z,8.25
2017-11-26T15:41:40.020Z,8.32
2017-11-26T15:41:52.299Z,8.95
2017-11-26T15:42:03.816Z,9.02
2017-11-26T15:42:16.039Z,8.38
2017-11-26T15:42:27.549Z,8.50
2017-11-26T15:42:39.039Z,8.57
2017-11-26T15:42:51.289Z,8.93
2017-11-26T15:43:03.627Z,8.90
2017-11-26T15:43:15.808Z,9.02
2017-11-26T15:43:28.203Z,9.70
2017-11-26T15:43:39.754Z,10.30
2017-11-26T15:43:51.284Z,10.40
2017-11-26T15:44:02.784Z,10.85
2017-11-26T15:44:14.308Z,10.32
2017-11-26T15:44:25.814Z,9.65
2017-11-26T15:44:37.328Z,9.57
2017-11-26T15:44:49.335Z,9.23
2017-11-26T15:45:00.852Z,9.02
2017-11-26T15:45:12.364Z,9.63
2017-11-26T15:45:24.595Z,10.27
2017-11-26T15:45:36.087Z,10.18
2017-11-26T15:45:47.597Z,10.00
2017-11-26T15:45:59.856Z,9.60
2017-11-26T15:46:12.322Z,9.05
2017-11-26T15:46:23.851Z,9.35
2017-11-26T15:46:36.109Z,9.57
2017-11-26T15:46:47.658Z,9.80
2017-11-26T15:46:59.192Z,9.90
2017-11-26T15:47:10.779Z,10.52
2017-11-26T15:47:22.340Z,10.48
2017-11-26T15:47:33.950Z,9.75
2017-11-26T15:47:47.026Z,9.20
2017-11-26T15:47:58.531Z,8.90
2017-11-26T15:48:10.035Z,8.55
2017-11-26T15:48:23.023Z,8.43
2017-11-26T15:48:34.548Z,8.40
2017-11-26T15:48:46.060Z,8.45
2017-11-26T15:48:57.555Z,8.52
2017-11-26T15:49:09.820Z,8.60
2017-11-26T15:49:21.311Z,8.60
2017-11-26T15:49:33.714Z,8.70
2017-11-26T15:49:45.960Z,9.60
2017-11-26T15:49:57.556Z,9.30
2017-11-26T15:50:09.095Z,9.18
2017-11-26T15:50:20.657Z,8.75
2017-11-26T15:50:32.290Z,8.38
2017-11-26T15:50:43.757Z,7.62
2017-11-26T15:50:55.281Z,7.80
2017-11-26T15:51:06.807Z,8.50
2017-11-26T15:51:18.309Z,9.07
2017-11-26T15:51:30.559Z,9.85
2017-11-26T15:51:42.056Z,10.48
2017-11-26T15:51:54.288Z,10.68
2017-11-26T15:52:05.787Z,10.50
2017-11-26T15:52:17.291Z,10.13
2017-11-26T15:52:28.759Z,9.38
2017-11-26T15:52:40.984Z,8.88
2017-11-26T15:52:52.492Z,8.40
2017-11-26T15:53:03.979Z,8.23
2017-11-26T15:53:15.500Z,8.20
2017-11-26T15:53:27.019Z,9.65
2017-11-26T15:53:40.001Z,10.05
2017-11-26T15:53:51.539Z,10.13
2017-11-26T15:54:03.051Z,10.50
2017-11-26T15:54:14.561Z,11.68
2017-11-26T15:54:26.087Z,27.87
2017-11-26T15:54:37.579Z,68.82
2017-11-26T15:54:50.604Z,70.20
2017-11-26T15:55:02.870Z,66.55
2017-11-26T15:55:14.365Z,59.75
2017-11-26T15:55:26.597Z,60.00
2017-11-26T15:55:38.093Z,59.80
2017-11-26T15:55:49.716Z,58.33
2017-11-26T15:56:01.979Z,60.70
2017-11-26T15:56:13.503Z,61.15
2017-11-26T15:56:25.008Z,59.40
2017-11-26T15:56:36.453Z,56.60
2017-11-26T15:56:47.944Z,56.22
2017-11-26T15:56:59.428Z,56.37
2017-11-26T15:57:10.904Z,56.35
2017-11-26T15:57:22.381Z,59.90
2017-11-26T15:57:33.888Z,72.43
2017-11-26T15:57:45.360Z,186.60
2017-11-26T15:57:56.881Z,166.12
2017-11-26T15:58:08.415Z,172.15
2017-11-26T15:58:19.960Z,140.60
2017-11-26T15:58:32.239Z,140.68
2017-11-26T15:58:44.523Z,146.73
2017-11-26T15:58:56.782Z,145.75
2017-11-26T15:59:08.263Z,144.18
2017-11-26T15:59:19.751Z,146.68
2017-11-26T15:59:31.987Z,148.50
2017-11-26T15:59:43.491Z,149.07
2017-11-26T15:59:54.972Z,154.27
2017-11-26T16:00:07.245Z,157.60
2017-11-26T16:00:19.767Z,161.57
2017-11-26T16:00:31.253Z,164.50
2017-11-26T16:00:42.779Z,165.55
2017-11-26T16:00:54.284Z,165.98
2017-11-26T16:01:05.837Z,166.35
2017-11-26T16:01:17.368Z,168.77
2017-11-26T16:01:28.869Z,168.75
2017-11-26T16:01:40.356Z,166.68
2017-11-26T16:01:51.840Z,164.98
2017-11-26T16:02:03.349Z,165.18
2017-11-26T16:02:14.838Z,162.68
2017-11-26T16:02:26.320Z,162.15
2017-11-26T16:02:37.811Z,163.90
2017-11-26T16:02:49.289Z,165.02
2017-11-26T16:03:00.782Z,165.07
2017-11-26T16:03:13.039Z,166.90
2017-11-26T16:03:24.534Z,167.55
2017-11-26T16:03:36.766Z,166.65
2017-11-26T16:03:48.268Z,165.52
2017-11-26T16:03:59.803Z,164.55
2017-11-26T16:04:11.344Z,160.63
2017-11-26T16:04:23.611Z,160.98
2017-11-26T16:04:35.095Z,161.60
2017-11-26T16:04:46.571Z,159.25
2017-11-26T16:04:58.815Z,157.40
2017-11-26T16:05:10.339Z,156.93
2017-11-26T16:05:21.794Z,153.82
2017-11-26T16:05:33.297Z,151.63
2017-11-26T16:05:45.513Z,154.95
2017-11-26T16:05:56.963Z,152.55
2017-11-26T16:06:08.437Z,154.15
2017-11-26T16:06:20.653Z,156.68
2017-11-26T16:06:32.132Z,156.15
2017-11-26T16:06:43.646Z,151.93
2017-11-26T16:06:55.168Z,152.98
2017-11-26T16:07:06.664Z,151.80
2017-11-26T16:07:18.193Z,149.05
2017-11-26T16:07:29.732Z,150.15
2017-11-26T16:07:42.017Z,151.85
2017-11-26T16:07:54.261Z,152.87
2017-11-26T16:08:05.802Z,151.35
2017-11-26T16:08:17.273Z,149.15
2017-11-26T16:08:28.801Z,145.32
2017-11-26T16:08:41.052Z,144.27
2017-11-26T16:08:52.549Z,142.87
2017-11-26T16:09:04.044Z,142.80
2017-11-26T16:09:15.515Z,143.25
2017-11-26T16:09:26.995Z,143.30
2017-11-26T16:09:38.509Z,139.43
2017-11-26T16:09:49.988Z,136.93
2017-11-26T16:10:01.480Z,136.37
2017-11-26T16:10:12.986Z,134.93
2017-11-26T16:10:24.500Z,134.15
2017-11-26T16:10:36.000Z,136.20
2017-11-26T16:10:47.497Z,136.00
2017-11-26T16:10:59.728Z,138.18
2017-11-26T16:11:11.260Z,138.82
2017-11-26T16:11:24.244Z,138.18
2017-11-26T16:11:35.724Z,135.75
2017-11-26T16:11:47.235Z,137.07
2017-11-26T16:11:58.748Z,137.25
2017-11-26T16:12:10.236Z,139.60
2017-11-26T16:12:21.724Z,141.32
2017-11-26T16:12:33.245Z,145.70
2017-11-26T16:12:44.733Z,146.70
2017-11-26T16:12:56.228Z,145.40
2017-11-26T16:13:09.191Z,143.18
2017-11-26T16:13:20.665Z,141.23
2017-11-26T16:13:32.157Z,137.12
2017-11-26T16:13:43.653Z,133.70
2017-11-26T16:13:55.125Z,131.45
2017-11-26T16:14:06.607Z,128.57
2017-11-26T16:14:18.107Z,127.82
2017-11-26T16:14:29.585Z,128.43
2017-11-26T16:14:41.119Z,128.02
2017-11-26T16:14:53.360Z,129.07
2017-11-26T16:15:04.829Z,128.10
2017-11-26T16:15:16.343Z,126.35
2017-11-26T16:15:28.577Z,125.53
2017-11-26T16:15:40.080Z,124.10
2017-11-26T16:15:51.595Z,122.90
2017-11-26T16:16:03.091Z,124.45
2017-11-26T16:16:14.564Z,126.45
2017-11-26T16:16:26.063Z,128.95
2017-11-26T16:16:37.558Z,128.98
2017-11-26T16:16:49.836Z,129.40
2017-11-26T16:17:01.332Z,129.00
2017-11-26T16:17:12.872Z,130.07
2017-11-26T16:17:24.389Z,125.70
2017-11-26T16:17:35.892Z,125.43
2017-11-26T16:17:47.387Z,126.50
2017-11-26T16:17:59.636Z,125.73
2017-11-26T16:18:11.112Z,122.35
2017-11-26T16:18:22.610Z,124.07
2017-11-26T16:18:34.080Z,73.97
2017-11-26T16:18:45.556Z,31.42
2017-11-26T16:18:57.053Z,26.95
2017-11-26T16:19:09.268Z,25.48
2017-11-26T16:19:20.756Z,26.42
2017-11-26T16:19:32.268Z,27.02
2017-11-26T16:19:43.755Z,29.80
2017-11-26T16:19:56.029Z,34.25
2017-11-26T16:20:08.296Z,40.40
2017-11-26T16:20:19.821Z,46.85
2017-11-26T16:20:31.312Z,51.37
2017-11-26T16:20:42.801Z,55.53
2017-11-26T16:20:54.317Z,61.60
2017-11-26T16:21:06.567Z,67.25
2017-11-26T16:21:18.079Z,94.72
2017-11-26T16:21:30.312Z,104.38
2017-11-26T16:21:41.806Z,109.18
2017-11-26T16:21:53.279Z,120.60
2017-11-26T16:22:04.724Z,176.43
2017-11-26T16:22:16.220Z,175.98
2017-11-26T16:22:27.713Z,277.15
2017-11-26T16:22:39.207Z,263.08
2017-11-26T16:22:51.435Z,250.55
2017-11-26T16:23:02.975Z,248.02
2017-11-26T16:23:15.187Z,246.20
2017-11-26T16:23:26.676Z,240.68
2017-11-26T16:23:38.159Z,243.35
2017-11-26T16:23:49.656Z,247.05
2017-11-26T16:24:01.851Z,254.00
2017-11-26T16:24:14.092Z,256.80
2017-11-26T16:24:25.568Z,256.33
2017-11-26T16:24:37.062Z,251.85
2017-11-26T16:24:48.556Z,250.57
2017-11-26T16:25:00.791Z,246.20
2017-11-26T16:25:12.325Z,237.65
2017-11-26T16:25:24.573Z,234.95
2017-11-26T16:25:36.056Z,235.57
2017-11-26T16:25:47.527Z,232.20
2017-11-26T16:25:59.056Z,226.85
2017-11-26T16:26:10.576Z,225.70
2017-11-26T16:26:22.841Z,223.73
2017-11-26T16:26:34.383Z,222.85
2017-11-26T16:26:45.879Z,221.50
2017-11-26T16:26:57.352Z,222.68
2017-11-26T16:27:08.840Z,225.70
2017-11-26T16:27:20.341Z,226.57
2017-11-26T16:27:32.593Z,219.45
2017-11-26T16:27:44.105Z,220.15
2017-11-26T16:27:56.326Z,219.82
2017-11-26T16:28:07.817Z,218.10
2017-11-26T16:28:19.334Z,222.80
2017-11-26T16:28:30.839Z,226.48
2017-11-26T16:28:42.384Z,227.90
2017-11-26T16:28:54.614Z,226.25
2017-11-26T16:29:06.096Z,221.77
2017-11-26T16:29:17.611Z,214.52
2017-11-26T16:29:29.845Z,209.40
2017-11-26T16:29:41.325Z,210.98
2017-11-26T16:29:52.808Z,211.37
2017-11-26T16:30:04.301Z,212.45
2017-11-26T16:30:15.777Z,216.88
2017-11-26T16:30:28.755Z,223.73
2017-11-26T16:30:40.231Z,220.80
2017-11-26T16:30:51.740Z,220.93
2017-11-26T16:31:03.256Z,218.43
2017-11-26T16:31:14.755Z,213.43
2017-11-26T16:31:26.253Z,206.98
2017-11-26T16:31:37.766Z,203.67
2017-11-26T16:31:49.243Z,200.98
2017-11-26T16:32:00.731Z,203.23
2017-11-26T16:32:12.219Z,209.55
2017-11-26T16:32:24.476Z,218.98
2017-11-26T16:32:36.005Z,233.87
2017-11-26T16:32:48.217Z,251.50
2017-11-26T16:32:59.708Z,264.45
2017-11-26T16:33:11.189Z,277.15
2017-11-26T16:33:22.673Z,289.40
2017-11-26T16:33:34.918Z,297.50
2017-11-26T16:33:46.419Z,304.05
2017-11-26T16:33:57.888Z,309.67
2017-11-26T16:34:09.395Z,322.58
2017-11-26T16:34:21.648Z,331.33
2017-11-26T16:34:33.165Z,342.90
2017-11-26T16:34:44.648Z,345.20
2017-11-26T16:34:56.202Z,352.05
2017-11-26T16:35:08.447Z,352.15
2017-11-26T16:35:19.919Z,343.88
2017-11-26T16:35:31.443Z,328.55
2017-11-26T16:35:43.672Z,320.85
2017-11-26T16:35:55.169Z,314.15
2017-11-26T16:36:07.428Z,309.12
2017-11-26T16:36:18.908Z,314.92
2017-11-26T16:36:30.408Z,320.90
2017-11-26T16:36:42.664Z,326.50
2017-11-26T16:36:54.142Z,336.77
2017-11-26T16:37:05.640Z,338.70
2017-11-26T16:37:17.125Z,335.08
2017-11-26T16:37:28.648Z,337.98
2017-11-26T16:37:40.152Z,334.95
2017-11-26T16:37:51.600Z,323.92
2017-11-26T16:38:03.067Z,320.05
2017-11-26T16:38:14.556Z,322.20
2017-11-26T16:38:26.045Z,317.48
2017-11-26T16:38:38.271Z,315.95
2017-11-26T16:38:49.787Z,316.12
2017-11-26T16:39:01.264Z,315.15
2017-11-26T16:39:12.808Z,309.12
2017-11-26T16:39:24.308Z,305.33
2017-11-26T16:39:35.799Z,302.45
2017-11-26T16:39:48.044Z,304.17
2017-11-26T16:39:59.552Z,300.92
2017-11-26T16:40:11.800Z,297.58
2017-11-26T16:40:23.262Z,289.38
2017-11-26T16:40:35.296Z,285.80
2017-11-26T16:40:47.544Z,281.98
2017-11-26T16:40:59.051Z,279.38
2017-11-26T16:41:11.592Z,278.62
2017-11-26T16:41:23.082Z,282.67
2017-11-26T16:41:34.580Z,285.00
2017-11-26T16:41:46.880Z,282.62
2017-11-26T16:41:59.184Z,282.95
2017-11-26T16:42:11.463Z,282.20
2017-11-26T16:42:23.007Z,281.23
2017-11-26T16:42:34.551Z,278.40
2017-11-26T16:42:46.076Z,279.42
2017-11-26T16:42:58.380Z,277.60
2017-11-26T16:43:09.892Z,280.17
2017-11-26T16:43:21.457Z,283.00
2017-11-26T16:43:32.928Z,281.85
2017-11-26T16:43:44.423Z,280.60
2017-11-26T16:43:55.916Z,279.55
2017-11-26T16:44:07.416Z,278.08
2017-11-26T16:44:19.641Z,274.75
2017-11-26T16:44:31.140Z,275.48
2017-11-26T16:44:42.634Z,273.83
2017-11-26T16:44:54.876Z,277.58
2017-11-26T16:45:06.454Z,274.08
2017-11-26T16:45:17.975Z,271.95
2017-11-26T16:45:30.194Z,273.58
2017-11-26T16:45:41.813Z,274.73
2017-11-26T16:45:53.332Z,267.90
2017-11-26T16:46:04.848Z,261.73
2017-11-26T16:46:16.345Z,259.75
2017-11-26T16:46:28.575Z,252.77
2017-11-26T16:46:40.072Z,250.73
2017-11-26T16:46:51.557Z,253.57
2017-11-26T16:47:03.056Z,257.60
2017-11-26T16:47:15.284Z,257.58
2017-11-26T16:47:26.776Z,258.90
2017-11-26T16:47:38.270Z,256.35
2017-11-26T16:47:49.744Z,251.07
2017-11-26T16:48:01.283Z,251.23
2017-11-26T16:48:12.795Z,248.23
2017-11-26T16:48:25.001Z,252.43
2017-11-26T16:48:36.535Z,251.50
2017-11-26T16:48:48.048Z,255.32
2017-11-26T16:49:00.304Z,256.87
2017-11-26T16:49:11.855Z,255.15
2017-11-26T16:49:23.400Z,251.05
2017-11-26T16:49:34.932Z,252.00
2017-11-26T16:49:47.247Z,254.50
2017-11-26T16:49:58.798Z,251.48
2017-11-26T16:50:11.812Z,252.43
2017-11-26T16:50:23.339Z,253.57
2017-11-26T16:50:34.827Z,246.80
2017-11-26T16:50:46.405Z,243.98
2017-11-26T16:50:57.928Z,240.75
2017-11-26T16:51:09.496Z,236.50
2017-11-26T16:51:21.044Z,234.95
2017-11-26T16:51:32.596Z,239.80
2017-11-26T16:51:44.853Z,238.52
2017-11-26T16:51:57.960Z,241.15
2017-11-26T16:52:09.969Z,236.48
2017-11-26T16:52:21.449Z,234.37
2017-11-26T16:52:32.956Z,226.70
2017-11-26T16:52:44.445Z,226.23
2017-11-26T16:52:55.940Z,222.70
2017-11-26T16:53:07.435Z,226.65
2017-11-26T16:53:19.000Z,230.93
2017-11-26T16:53:30.537Z,230.52
2017-11-26T16:53:42.089Z,226.88
2017-11-26T16:53:53.608Z,225.57
2017-11-26T16:54:05.149Z,223.77
2017-11-26T16:54:16.664Z,218.23
2017-11-26T16:54:28.150Z,212.12
2017-11-26T16:54:40.402Z,116.88
2017-11-26T16:54:51.940Z,81.32
2017-11-26T16:55:04.175Z,80.43
2017-11-26T16:55:15.650Z,91.00
2017-11-26T16:55:27.144Z,97.82
2017-11-26T16:55:39.409Z,102.68
2017-11-26T16:55:50.961Z,125.12
2017-11-26T16:56:02.472Z,144.95
2017-11-26T16:56:14.024Z,155.80
2017-11-26T16:56:25.544Z,164.90
2017-11-26T16:56:37.098Z,173.15
2017-11-26T16:56:49.393Z,178.50
2017-11-26T16:57:00.892Z,186.05
2017-11-26T16:57:12.421Z,201.03
2017-11-26T16:57:23.946Z,232.85
2017-11-26T16:57:35.499Z,262.80
2017-11-26T16:57:47.731Z,290.10
2017-11-26T16:57:59.208Z,307.85
2017-11-26T16:58:10.727Z,310.50
2017-11-26T16:58:22.256Z,280.08
2017-11-26T16:58:33.815Z,288.65
2017-11-26T16:58:45.359Z,289.50
2017-11-26T16:58:56.893Z,319.70
2017-11-26T16:59:09.176Z,397.50
2017-11-26T16:59:20.648Z,396.00
2017-11-26T16:59:32.140Z,391.48
2017-11-26T16:59:44.340Z,385.80
2017-11-26T16:59:55.828Z,383.30
2017-11-26T17:00:07.312Z,368.08
2017-11-26T17:00:18.840Z,359.65
2017-11-26T17:00:30.387Z,357.70
2017-11-26T17:00:42.697Z,357.87
2017-11-26T17:00:54.272Z,359.70
2017-11-26T17:01:05.783Z,362.77
2017-11-26T17:01:17.322Z,359.50
2017-11-26T17:01:28.808Z,355.87
2017-11-26T17:01:40.280Z,359.00
2017-11-26T17:01:51.767Z,366.02
2017-11-26T17:02:03.265Z,371.75
2017-11-26T17:02:14.752Z,379.15
2017-11-26T17:02:26.236Z,385.90
2017-11-26T17:02:37.703Z,391.38
2017-11-26T17:02:49.970Z,389.42
2017-11-26T17:03:02.964Z,389.87
2017-11-26T17:03:14.436Z,393.75
2017-11-26T17:03:25.899Z,394.15
2017-11-26T17:03:37.421Z,395.83
2017-11-26T17:03:48.910Z,396.02
2017-11-26T17:04:00.438Z,393.93
2017-11-26T17:04:11.924Z,389.95
2017-11-26T17:04:23.456Z,386.48
2017-11-26T17:04:34.996Z,377.77
2017-11-26T17:04:46.532Z,371.00
2017-11-26T17:04:58.076Z,368.15
2017-11-26T17:05:09.601Z,369.75
2017-11-26T17:05:21.839Z,369.10
2017-11-26T17:05:33.381Z,374.55
2017-11-26T17:05:44.922Z,380.12
2017-11-26T17:05:57.222Z,383.35
2017-11-26T17:06:09.496Z,379.85
2017-11-26T17:06:21.012Z,380.40
2017-11-26T17:06:32.550Z,378.00
2017-11-26T17:06:44.090Z,370.55
2017-11-26T17:06:56.373Z,366.38
2017-11-26T17:07:07.923Z,363.07
2017-11-26T17:07:19.495Z,361.90
2017-11-26T17:07:31.031Z,360.60
2017-11-26T17:07:43.285Z,362.65
2017-11-26T17:07:55.358Z,359.48
2017-11-26T17:08:07.119Z,357.60
2017-11-26T17:08:18.844Z,351.17
2017-11-26T17:08:30.348Z,345.90
2017-11-26T17:08:42.692Z,343.45
2017-11-26T17:08:54.192Z,338.30
2017-11-26T17:09:06.458Z,336.85
2017-11-26T17:09:17.992Z,338.83
2017-11-26T17:09:29.770Z,340.65
2017-11-26T17:09:42.813Z,341.85
2017-11-26T17:09:54.306Z,341.42
2017-11-26T17:10:05.881Z,337.15
2017-11-26T17:10:18.146Z,334.73
2017-11-26T17:10:29.676Z,334.87
2017-11-26T17:10:41.204Z,326.67
2017-11-26T17:10:52.680Z,328.45
2017-11-26T17:11:04.229Z,327.90
2017-11-26T17:11:17.448Z,330.45
2017-11-26T17:11:28.933Z,327.52
2017-11-26T17:11:41.232Z,325.58
2017-11-26T17:11:52.782Z,317.65
2017-11-26T17:12:04.317Z,322.37
2017-11-26T17:12:15.869Z,321.80
2017-11-26T17:12:28.104Z,321.50
2017-11-26T17:12:39.608Z,330.73
2017-11-26T17:12:51.079Z,340.55
2017-11-26T17:13:03.338Z,337.70
2017-11-26T17:13:15.639Z,338.62
2017-11-26T17:13:27.433Z,340.85
2017-11-26T17:13:39.147Z,334.00
2017-11-26T17:13:50.814Z,329.65
2017-11-26T17:14:02.456Z,328.77
2017-11-26T17:14:14.018Z,321.67
2017-11-26T17:14:27.284Z,313.77
2017-11-26T17:14:38.844Z,314.65
2017-11-26T17:14:51.315Z,316.17
2017-11-26T17:15:02.975Z,323.35
2017-11-26T17:15:14.563Z,334.10
2017-11-26T17:15:27.521Z,345.52
2017-11-26T17:15:39.209Z,356.83
2017-11-26T17:15:50.927Z,365.90
2017-11-26T17:16:03.413Z,377.58
2017-11-26T17:16:15.140Z,390.15
2017-11-26T17:16:26.628Z,402.88
2017-11-26T17:16:38.437Z,406.63
2017-11-26T17:16:49.975Z,411.00
2017-11-26T17:17:02.624Z,406.92
2017-11-26T17:17:15.172Z,398.67
2017-11-26T17:17:26.886Z,384.95
2017-11-26T17:17:38.401Z,383.00
2017-11-26T17:17:51.004Z,380.30
2017-11-26T17:18:02.628Z,378.42
2017-11-26T17:18:14.132Z,381.15
2017-11-26T17:18:25.644Z,388.27
2017-11-26T17:18:37.289Z,390.27
2017-11-26T17:18:48.842Z,392.23
2017-11-26T17:19:01.289Z,396.70
2017-11-26T17:19:12.936Z,405.52
2017-11-26T17:19:24.663Z,410.33
2017-11-26T17:19:36.331Z,414.02
2017-11-26T17:19:47.816Z,420.85
2017-11-26T17:19:59.457Z,425.45
2017-11-26T17:20:11.116Z,421.98
2017-11-26T17:20:22.679Z,416.62
2017-11-26T17:20:34.215Z,414.40
2017-11-26T17:20:46.601Z,410.52
2017-11-26T17:20:58.543Z,400.73
2017-11-26T17:21:10.280Z,372.02
2017-11-26T17:21:21.798Z,341.70
2017-11-26T17:21:33.420Z,321.55
2017-11-26T17:21:45.670Z,302.10
2017-11-26T17:21:57.209Z,292.62
2017-11-26T17:22:08.785Z,298.65
2017-11-26T17:22:20.300Z,316.77
2017-11-26T17:22:31.855Z,328.55
2017-11-26T17:22:43.400Z,335.88
2017-11-26T17:22:55.089Z,342.77
2017-11-26T17:23:06.798Z,350.15
2017-11-26T17:23:18.488Z,356.48
2017-11-26T17:23:30.844Z,357.12
2017-11-26T17:23:42.616Z,358.73
2017-11-26T17:23:54.361Z,352.85
2017-11-26T17:24:05.864Z,351.60
2017-11-26T17:24:17.391Z,347.73
2017-11-26T17:24:29.629Z,347.10
2017-11-26T17:24:41.116Z,351.35
2017-11-26T17:24:52.830Z,353.73
2017-11-26T17:25:04.500Z,357.67
2017-11-26T17:25:16.012Z,364.00
2017-11-26T17:25:27.509Z,365.23
2017-11-26T17:25:39.191Z,363.10
2017-11-26T17:25:50.838Z,362.83
2017-11-26T17:26:02.569Z,358.45
2017-11-26T17:26:15.014Z,352.65
2017-11-26T17:26:26.741Z,345.90
2017-11-26T17:26:38.426Z,340.90
2017-11-26T17:26:50.177Z,336.83
2017-11-26T17:27:02.588Z,337.90
2017-11-26T17:27:15.039Z,339.50
2017-11-26T17:27:26.704Z,344.00
2017-11-26T17:27:38.478Z,348.75
2017-11-26T17:27:50.128Z,350.40
2017-11-26T17:28:01.734Z,349.67
2017-11-26T17:28:13.244Z,350.98
2017-11-26T17:28:24.733Z,347.95
2017-11-26T17:28:36.236Z,340.42
2017-11-26T17:28:47.723Z,335.35
2017-11-26T17:28:59.524Z,331.58
2017-11-26T17:29:12.166Z,329.05
2017-11-26T17:29:24.592Z,326.60
2017-11-26T17:29:36.370Z,329.60
2017-11-26T17:29:47.972Z,336.45
2017-11-26T17:29:59.452Z,336.10
2017-11-26T17:30:11.696Z,332.05
2017-11-26T17:30:23.364Z,331.95
2017-11-26T17:30:34.996Z,328.40
2017-11-26T17:30:47.535Z,320.33
2017-11-26T17:30:59.053Z,316.15
2017-11-26T17:31:11.288Z,314.40
2017-11-26T17:31:22.780Z,314.17
2017-11-26T17:31:34.283Z,315.90
2017-11-26T17:31:45.756Z,318.45
2017-11-26T17:31:57.276Z,322.92
2017-11-26T17:32:09.062Z,326.40
2017-11-26T17:32:20.549Z,327.10
2017-11-26T17:32:32.064Z,325.87
2017-11-26T17:32:44.296Z,320.05
2017-11-26T17:32:55.787Z,314.70
2017-11-26T17:33:07.443Z,309.60
2017-11-26T17:33:18.933Z,293.70
2017-11-26T17:33:30.431Z,262.98
2017-11-26T17:33:42.064Z,226.62
2017-11-26T17:33:53.781Z,191.43
2017-11-26T17:34:05.488Z,154.05
2017-11-26T17:34:17.763Z,124.38
2017-11-26T17:34:29.468Z,118.30
2017-11-26T17:34:41.192Z,120.40
2017-11-26T17:34:52.839Z,125.62
2017-11-26T17:35:04.493Z,137.48
2017-11-26T17:35:15.973Z,149.60
2017-11-26T17:35:27.608Z,163.18
2017-11-26T17:35:39.185Z,177.23
2017-11-26T17:35:50.632Z,192.23
2017-11-26T17:36:02.862Z,203.95
2017-11-26T17:36:15.093Z,212.63
2017-11-26T17:36:26.565Z,218.25
2017-11-26T17:36:38.069Z,219.70
2017-11-26T17:36:49.530Z,220.63
2017-11-26T17:37:01.000Z,220.12
2017-11-26T17:37:13.247Z,217.02
2017-11-26T17:37:24.752Z,219.35
2017-11-26T17:37:36.228Z,222.18
2017-11-26T17:37:47.715Z,229.13
2017-11-26T17:37:59.937Z,234.85
2017-11-26T17:38:11.425Z,245.07
2017-11-26T17:38:23.734Z,253.12
2017-11-26T17:38:35.251Z,265.20
2017-11-26T17:38:46.744Z,275.52
2017-11-26T17:38:58.240Z,285.38
2017-11-26T17:39:09.736Z,293.75
2017-11-26T17:39:21.256Z,302.73
2017-11-26T17:39:32.772Z,313.52
2017-11-26T17:39:44.264Z,317.58
2017-11-26T17:39:56.517Z,322.88
2017-11-26T17:40:08.004Z,327.80
2017-11-26T17:40:19.512Z,329.40
2017-11-26T17:40:30.985Z,321.10
2017-11-26T17:40:42.476Z,320.90
2017-11-26T17:40:53.999Z,314.38
2017-11-26T17:41:06.241Z,306.87
2017-11-26T17:41:17.753Z,304.38
2017-11-26T17:41:29.253Z,299.15
2017-11-26T17:41:41.532Z,295.08
2017-11-26T17:41:53.064Z,291.52
2017-11-26T17:42:04.532Z,292.23
2017-11-26T17:42:16.061Z,291.58
2017-11-26T17:42:27.562Z,293.33
2017-11-26T17:42:39.060Z,294.50
2017-11-26T17:42:50.536Z,295.50
2017-11-26T17:43:02.032Z,297.60
2017-11-26T17:43:13.526Z,296.63
2017-11-26T17:43:25.030Z,299.98
2017-11-26T17:43:36.545Z,306.25
2017-11-26T17:43:48.805Z,309.25
2017-11-26T17:44:01.114Z,314.15
2017-11-26T17:44:12.635Z,319.98
2017-11-26T17:44:24.139Z,323.10
2017-11-26T17:44:35.620Z,325.80
2017-11-26T17:44:47.891Z,325.83
2017-11-26T17:44:59.378Z,324.42
2017-11-26T17:45:10.868Z,318.58
2017-11-26T17:45:23.150Z,312.75
2017-11-26T17:45:34.663Z,301.58
2017-11-26T17:45:46.152Z,298.77
2017-11-26T17:45:57.653Z,293.90
2017-11-26T17:46:09.166Z,291.77
2017-11-26T17:46:20.707Z,291.00
2017-11-26T17:46:32.980Z,291.17
2017-11-26T17:46:44.525Z,286.40
2017-11-26T17:46:56.021Z,283.67
2017-11-26T17:47:07.527Z,283.33
2017-11-26T17:47:19.831Z,280.35
2017-11-26T17:47:31.343Z,279.55
2017-11-26T17:47:42.840Z,279.52
2017-11-26T17:47:54.360Z,282.05
2017-11-26T17:48:05.909Z,283.60
2017-11-26T17:48:18.161Z,285.30
2017-11-26T17:48:29.864Z,286.48
2017-11-26T17:48:41.460Z,288.80
2017-11-26T17:48:53.224Z,287.70
2017-11-26T17:49:05.715Z,285.23
2017-11-26T17:49:18.873Z,286.25
2017-11-26T17:49:30.432Z,284.90
2017-11-26T17:49:41.935Z,281.17
2017-11-26T17:49:53.507Z,280.15
2017-11-26T17:50:05.081Z,280.62
2017-11-26T17:50:16.728Z,278.25
2017-11-26T17:50:28.245Z,274.75
2017-11-26T17:50:39.896Z,275.75
2017-11-26T17:50:51.532Z,273.77
2017-11-26T17:51:03.126Z,270.90
2017-11-26T17:51:14.799Z,269.48
2017-11-26T17:51:26.277Z,268.50
2017-11-26T17:51:37.869Z,268.40
2017-11-26T17:51:49.601Z,267.08
2017-11-26T17:52:01.292Z,265.73
2017-11-26T17:52:12.924Z,262.48
2017-11-26T17:52:24.425Z,262.27
2017-11-26T17:52:35.931Z,261.10
2017-11-26T17:52:47.636Z,257.85
2017-11-26T17:52:59.872Z,256.60
2017-11-26T17:53:12.067Z,255.95
2017-11-26T17:53:23.585Z,254.07
2017-11-26T17:53:35.111Z,251.20
2017-11-26T17:53:46.631Z,251.50
2017-11-26T17:53:58.126Z,250.85
2017-11-26T17:54:10.359Z,252.05
2017-11-26T17:54:21.882Z,252.73
2017-11-26T17:54:33.561Z,255.05
2017-11-26T17:54:45.689Z,252.40
2017-11-26T17:54:57.511Z,249.27
2017-11-26T17:55:09.752Z,248.73
2017-11-26T17:55:21.292Z,250.60
2017-11-26T17:55:32.804Z,253.20
2017-11-26T17:55:44.302Z,265.87
2017-11-26T17:55:55.792Z,280.37
2017-11-26T17:56:08.053Z,293.73
2017-11-26T17:56:19.543Z,296.77
2017-11-26T17:56:31.769Z,304.90
2017-11-26T17:56:43.378Z,310.20
2017-11-26T17:56:54.976Z,316.05
2017-11-26T17:57:07.242Z,318.75
2017-11-26T17:57:18.715Z,327.67
2017-11-26T17:57:30.240Z,327.40
2017-11-26T17:57:41.726Z,327.25